createdAt,value
2018-12-17T00:01:36.059Z,233.93
2018-12-17T00:04:04.301Z,201.70
2018-12-17T00:06:33.450Z,448.07
2018-12-17T00:09:01.677Z,353.33
2018-12-17T00:11:29.977Z,327.03
2018-12-17T00:13:58.126Z,426.00
2018-12-17T00:16:26.395Z,542.80
2018-12-17T00:18:54.620Z,385.30
2018-12-17T00:21:23.737Z,511.37
2018-12-17T00:23:51.890Z,614.63
2018-12-17T00:26:20.047Z,513.53
2018-12-17T00:28:48.213Z,301.13
2018-12-17T00:31:16.384Z,304.27
2018-12-17T00:33:44.540Z,291.03
2018-12-17T00:36:12.689Z,630.77
2018-12-17T00:38:40.909Z,334.60
2018-12-17T00:41:10.060Z,409.80
2018-12-17T00:43:38.508Z,268.00
2018-12-17T00:46:06.671Z,353.40
2018-12-17T00:48:34.831Z,234.53
2018-12-17T00:51:02.982Z,177.20
2018-12-17T00:53:31.133Z,206.50
2018-12-17T00:56:00.126Z,226.17
2018-12-17T00:58:28.277Z,300.00
2018-12-17T01:00:56.425Z,314.53
2018-12-17T01:03:24.655Z,271.00
2018-12-17T01:05:52.915Z,421.37
2018-12-17T01:08:21.134Z,281.20
2018-12-17T01:10:49.361Z,242.13
2018-12-17T01:13:17.526Z,304.77
2018-12-17T01:15:45.676Z,338.13
2018-12-17T01:18:13.818Z,212.97
2018-12-17T01:20:42.034Z,284.73
2018-12-17T01:23:10.189Z,310.80
2018-12-17T01:25:38.421Z,284.47
2018-12-17T01:28:06.622Z,274.63
2018-12-17T01:30:35.402Z,293.03
2018-12-17T01:33:03.860Z,264.50
2018-12-17T01:35:32.146Z,283.07
2018-12-17T01:38:00.309Z,204.13
2018-12-17T01:40:28.494Z,277.47
2018-12-17T01:42:56.633Z,363.93
2018-12-17T01:45:24.853Z,313.17
2018-12-17T01:47:53.169Z,167.23
2018-12-17T01:50:21.324Z,305.30
2018-12-17T01:52:49.473Z,283.47
2018-12-17T01:55:17.646Z,277.40
2018-12-17T01:57:45.867Z,233.13
2018-12-17T02:00:14.214Z,256.00
2018-12-17T02:02:42.384Z,424.93
2018-12-17T02:05:10.627Z,253.60
2018-12-17T02:07:39.399Z,415.50
2018-12-17T02:10:07.751Z,362.00
2018-12-17T02:12:35.983Z,291.47
2018-12-17T02:15:05.677Z,247.47
2018-12-17T02:17:33.946Z,328.90
2018-12-17T02:20:02.292Z,223.43
2018-12-17T02:22:30.432Z,195.47
2018-12-17T02:24:58.685Z,205.17
2018-12-17T02:27:27.515Z,273.17
2018-12-17T02:29:55.734Z,176.73
2018-12-17T02:32:23.955Z,219.70
2018-12-17T02:34:52.186Z,195.93
2018-12-17T02:37:20.401Z,239.17
2018-12-17T02:39:48.630Z,303.90
2018-12-17T02:42:16.922Z,272.60
2018-12-17T02:44:45.554Z,229.30
2018-12-17T02:47:13.708Z,197.97
2018-12-17T02:49:42.042Z,250.67
2018-12-17T02:52:10.277Z,257.53
2018-12-17T02:54:39.113Z,252.73
2018-12-17T02:57:07.246Z,251.80
2018-12-17T02:59:35.533Z,186.67
2018-12-17T03:02:03.848Z,312.97
2018-12-17T03:04:32.028Z,248.73
2018-12-17T03:07:00.181Z,327.60
2018-12-17T03:09:28.341Z,284.07
2018-12-17T03:11:56.499Z,215.67
2018-12-17T03:14:24.666Z,352.80
2018-12-17T03:16:53.457Z,303.57
2018-12-17T03:19:21.661Z,389.67
2018-12-17T03:21:49.886Z,563.07
2018-12-17T03:24:18.180Z,334.70
2018-12-17T03:26:46.333Z,385.90
2018-12-17T03:29:14.561Z,376.33
2018-12-17T03:31:43.016Z,347.20
2018-12-17T03:34:11.238Z,233.10
2018-12-17T03:36:39.454Z,410.70
2018-12-17T03:39:07.736Z,365.20
2018-12-17T03:41:35.945Z,285.30
2018-12-17T03:44:04.104Z,257.70
2018-12-17T03:46:32.270Z,375.17
2018-12-17T03:49:00.487Z,542.53
2018-12-17T03:51:28.665Z,373.50
2018-12-17T03:53:56.955Z,276.07
2018-12-17T03:56:25.272Z,276.30
2018-12-17T03:58:59.215Z,255.93
2018-12-17T04:01:23.747Z,262.10
2018-12-17T04:03:51.965Z,305.03
2018-12-17T04:06:20.190Z,363.90
2018-12-17T04:08:48.548Z,266.80
2018-12-17T04:11:16.740Z,298.37
2018-12-17T04:13:44.966Z,232.33
2018-12-17T04:16:13.184Z,255.50
2018-12-17T04:18:41.389Z,262.20
2018-12-17T04:21:09.664Z,246.80
2018-12-17T04:23:37.852Z,253.07
2018-12-17T04:26:06.129Z,189.60
2018-12-17T04:28:34.449Z,189.57
2018-12-17T04:31:02.591Z,217.43
2018-12-17T04:33:30.825Z,170.33
2018-12-17T04:35:58.994Z,189.93
2018-12-17T04:38:27.192Z,197.33
2018-12-17T04:40:55.550Z,202.07
2018-12-17T04:43:23.844Z,183.00
2018-12-17T04:45:52.069Z,177.93
2018-12-17T04:48:20.347Z,175.40
2018-12-17T04:50:48.582Z,221.27
2018-12-17T04:53:16.833Z,190.17
2018-12-17T04:55:45.008Z,203.63
2018-12-17T04:58:13.417Z,184.93
2018-12-17T05:00:41.634Z,200.10
2018-12-17T05:03:09.873Z,200.10
2018-12-17T05:05:38.963Z,201.57
2018-12-17T05:08:07.166Z,211.87
2018-12-17T05:10:35.348Z,201.47
2018-12-17T05:13:03.510Z,261.23
2018-12-17T05:15:31.741Z,170.50
2018-12-17T05:18:00.049Z,228.00
2018-12-17T05:20:28.206Z,256.73
2018-12-17T05:22:56.426Z,197.40
2018-12-17T05:25:25.177Z,211.63
2018-12-17T05:27:53.393Z,208.43
2018-12-17T05:30:21.603Z,227.77
2018-12-17T05:32:49.813Z,219.13
2018-12-17T05:35:18.152Z,209.33
2018-12-17T05:37:46.374Z,243.90
2018-12-17T05:40:14.592Z,220.90
2018-12-17T05:42:42.802Z,225.67
2018-12-17T05:45:11.027Z,219.17
2018-12-17T05:47:39.255Z,265.90
2018-12-17T05:50:07.590Z,250.07
2018-12-17T05:52:36.527Z,340.17
2018-12-17T05:55:05.285Z,306.87
2018-12-17T05:57:33.452Z,303.23
2018-12-17T06:00:01.610Z,280.57
2018-12-17T06:02:29.828Z,390.67
2018-12-17T06:04:59.382Z,394.63
2018-12-17T06:07:27.832Z,380.60
2018-12-17T06:09:56.004Z,383.43
2018-12-17T06:12:24.255Z,364.77
2018-12-17T06:14:52.430Z,382.73
2018-12-17T06:17:20.585Z,418.60
2018-12-17T06:19:48.750Z,461.73
2018-12-17T06:22:16.891Z,434.00
2018-12-17T06:24:45.224Z,475.17
2018-12-17T06:27:13.441Z,444.90
2018-12-17T06:29:41.646Z,400.63
2018-12-17T06:32:09.818Z,386.73
2018-12-17T06:34:37.986Z,361.93
2018-12-17T06:37:06.176Z,416.20
2018-12-17T06:39:34.394Z,443.83
2018-12-17T06:42:02.583Z,400.63
2018-12-17T06:44:30.846Z,401.80
2018-12-17T06:46:59.172Z,424.93
2018-12-17T06:49:27.391Z,399.77
2018-12-17T06:51:55.800Z,456.73
2018-12-17T06:54:24.175Z,337.57
2018-12-17T06:56:52.388Z,430.97
2018-12-17T06:59:20.642Z,544.17
2018-12-17T07:01:49.626Z,508.10
2018-12-17T07:04:17.836Z,598.30
2018-12-17T07:06:46.101Z,418.20
2018-12-17T07:09:14.330Z,480.10
2018-12-17T07:11:42.541Z,529.50
2018-12-17T07:14:11.199Z,506.60
2018-12-17T07:16:39.423Z,538.97
2018-12-17T07:19:07.622Z,542.37
2018-12-17T07:21:35.777Z,325.60
2018-12-17T07:24:04.091Z,629.47
2018-12-17T07:26:32.244Z,662.57
2018-12-17T07:29:00.511Z,472.87
2018-12-17T07:31:28.678Z,505.90
2018-12-17T07:33:56.886Z,487.67
2018-12-17T07:36:25.033Z,420.03
2018-12-17T07:38:53.260Z,551.40
2018-12-17T07:41:21.486Z,462.47
2018-12-17T07:43:49.788Z,399.83
2018-12-17T07:46:17.956Z,452.50
2018-12-17T07:48:46.191Z,456.17
2018-12-17T07:51:14.599Z,420.83
2018-12-17T07:53:42.782Z,381.50
2018-12-17T07:56:10.942Z,404.13
2018-12-17T07:58:39.685Z,393.30
2018-12-17T08:01:07.846Z,395.63
2018-12-17T08:03:35.994Z,417.40
2018-12-17T08:06:04.141Z,417.03
2018-12-17T08:08:35.393Z,382.63
2018-12-17T08:11:02.461Z,385.50
2018-12-17T08:13:30.762Z,311.07
2018-12-17T08:15:59.043Z,367.10
2018-12-17T08:18:27.253Z,360.77
2018-12-17T08:20:55.484Z,331.93
2018-12-17T08:23:24.639Z,307.03
2018-12-17T08:25:52.907Z,336.87
2018-12-17T08:28:21.205Z,324.77
2018-12-17T08:30:49.444Z,341.20
2018-12-17T08:33:17.604Z,313.23
2018-12-17T08:35:46.166Z,321.53
2018-12-17T08:38:16.399Z,281.03
2018-12-17T08:40:44.548Z,313.07
2018-12-17T08:43:12.701Z,294.60
2018-12-17T08:45:40.936Z,309.10
2018-12-17T08:48:09.095Z,299.00
2018-12-17T08:50:37.241Z,299.67
2018-12-17T08:53:05.399Z,291.57
2018-12-17T08:55:33.567Z,328.87
2018-12-17T08:58:01.749Z,335.87
2018-12-17T09:00:29.991Z,337.10
2018-12-17T09:02:58.605Z,342.20
2018-12-17T09:05:26.766Z,356.50
2018-12-17T09:07:55.070Z,372.50
2018-12-17T09:10:23.248Z,371.57
2018-12-17T09:12:52.003Z,319.83
2018-12-17T09:15:20.256Z,336.97
2018-12-17T09:17:48.421Z,342.53
2018-12-17T09:20:16.587Z,356.10
2018-12-17T09:22:44.787Z,342.80
2018-12-17T09:25:13.025Z,363.87
2018-12-17T09:27:41.186Z,339.17
2018-12-17T09:30:09.622Z,343.13
2018-12-17T09:32:37.787Z,319.73
2018-12-17T09:35:06.214Z,352.30
2018-12-17T09:37:34.472Z,369.20
2018-12-17T09:40:03.224Z,332.30
2018-12-17T09:42:31.433Z,367.07
2018-12-17T09:44:59.670Z,346.00
2018-12-17T09:47:27.806Z,349.00
2018-12-17T09:49:55.959Z,363.43
2018-12-17T09:52:24.117Z,332.63
2018-12-17T09:54:52.359Z,329.40
2018-12-17T09:57:20.520Z,360.23
2018-12-17T09:59:48.677Z,353.87
2018-12-17T10:02:16.843Z,330.70
2018-12-17T10:04:45.187Z,325.13
2018-12-17T10:07:13.353Z,295.77
2018-12-17T10:09:41.486Z,292.50
2018-12-17T10:12:09.693Z,313.97
2018-12-17T10:14:37.852Z,300.97
2018-12-17T10:17:06.063Z,287.83
2018-12-17T10:19:34.223Z,279.67
2018-12-17T10:22:02.396Z,269.80
2018-12-17T10:24:30.582Z,264.43
2018-12-17T10:26:58.934Z,268.73
2018-12-17T10:29:27.175Z,259.80
2018-12-17T10:31:55.427Z,253.50
2018-12-17T10:34:23.714Z,237.63
2018-12-17T10:36:51.890Z,264.07
2018-12-17T10:39:21.005Z,245.87
2018-12-17T10:41:49.147Z,252.47
2018-12-17T10:44:17.303Z,238.53
2018-12-17T10:46:45.457Z,242.47
2018-12-17T10:49:13.602Z,220.73
2018-12-17T10:51:41.765Z,241.90
2018-12-17T10:54:09.923Z,227.27
2018-12-17T10:56:38.147Z,230.57
2018-12-17T10:59:06.877Z,223.57
2018-12-17T11:01:40.867Z,210.97
2018-12-17T11:04:10.625Z,186.60
2018-12-17T11:06:38.775Z,188.27
2018-12-17T11:09:07.938Z,188.80
2018-12-17T11:11:36.192Z,182.80
2018-12-17T11:14:04.713Z,168.97
2018-12-17T11:16:32.889Z,188.40
2018-12-17T11:19:01.061Z,163.20
2018-12-17T11:21:29.222Z,164.80
2018-12-17T11:23:58.190Z,167.83
2018-12-17T11:26:26.371Z,153.17
2018-12-17T11:28:54.566Z,147.63
2018-12-17T11:31:22.819Z,152.60
2018-12-17T11:33:51.054Z,140.53
2018-12-17T11:36:19.240Z,137.50
2018-12-17T11:38:47.402Z,139.70
2018-12-17T11:41:15.575Z,136.33
2018-12-17T11:43:44.192Z,143.77
2018-12-17T11:46:12.544Z,123.17
2018-12-17T11:48:41.209Z,125.03
2018-12-17T11:51:09.634Z,120.80
2018-12-17T11:53:37.787Z,121.33
2018-12-17T11:56:06.028Z,108.80
2018-12-17T11:58:34.194Z,114.83
2018-12-17T12:01:03.109Z,116.17
2018-12-17T12:03:31.962Z,107.37
2018-12-17T12:06:00.110Z,95.97
2018-12-17T12:08:28.266Z,96.63
2018-12-17T12:10:56.426Z,105.60
2018-12-17T12:13:24.639Z,95.37
2018-12-17T12:15:52.849Z,92.43
2018-12-17T12:18:21.043Z,94.53
2018-12-17T12:20:49.276Z,87.90
2018-12-17T12:23:17.467Z,93.23
2018-12-17T12:25:45.678Z,87.87
2018-12-17T12:28:13.885Z,87.23
2018-12-17T12:30:42.053Z,84.50
2018-12-17T12:33:10.196Z,85.50
2018-12-17T12:35:38.615Z,86.43
2018-12-17T12:38:06.827Z,81.80
2018-12-17T12:40:35.066Z,82.20
2018-12-17T12:43:03.291Z,81.70
2018-12-17T12:45:31.562Z,84.70
2018-12-17T12:47:59.741Z,81.77
2018-12-17T12:50:28.271Z,77.87
2018-12-17T12:52:56.428Z,84.30
2018-12-17T12:55:24.595Z,78.67
2018-12-17T12:57:52.876Z,81.47
2018-12-17T13:00:21.114Z,79.33
2018-12-17T13:02:49.355Z,76.17
2018-12-17T13:05:17.531Z,79.63
2018-12-17T13:07:45.698Z,80.40
2018-12-17T13:10:13.939Z,77.50
2018-12-17T13:12:42.087Z,76.77
2018-12-17T13:15:10.228Z,77.43
2018-12-17T13:17:38.409Z,73.13
2018-12-17T13:20:06.646Z,79.60
2018-12-17T13:22:34.866Z,78.30
2018-12-17T13:25:03.663Z,72.47
2018-12-17T13:27:31.823Z,69.63
2018-12-17T13:30:00.046Z,75.97
2018-12-17T13:32:28.243Z,75.87
2018-12-17T13:34:56.398Z,73.50
2018-12-17T13:37:24.570Z,75.43
2018-12-17T13:39:52.861Z,74.30
2018-12-17T13:42:21.063Z,84.17
2018-12-17T13:44:49.452Z,81.57
2018-12-17T13:47:17.743Z,79.03
2018-12-17T13:49:45.953Z,76.93
2018-12-17T13:55:18.463Z,80.13
2018-12-17T13:57:46.697Z,78.27
2018-12-17T14:00:14.918Z,85.43
2018-12-17T14:02:43.060Z,87.07
2018-12-17T14:05:11.274Z,84.33
2018-12-17T14:07:39.932Z,86.27
2018-12-17T14:10:14.409Z,86.07
2018-12-17T14:12:42.610Z,92.00
2018-12-17T14:15:10.749Z,90.37
2018-12-17T14:17:41.007Z,94.43
2018-12-17T14:20:14.775Z,93.83
2018-12-17T14:22:42.986Z,99.13
2018-12-17T14:25:12.079Z,92.20
2018-12-17T14:27:40.357Z,96.93
2018-12-17T14:30:09.182Z,91.57
2018-12-17T14:32:37.330Z,93.67
2018-12-17T14:35:05.589Z,98.03
2018-12-17T14:37:35.812Z,90.67
2018-12-17T14:40:06.384Z,99.90
2018-12-17T14:42:34.515Z,100.23
2018-12-17T14:45:03.020Z,100.97
2018-12-17T14:47:31.263Z,97.37
2018-12-17T14:50:00.610Z,102.73
2018-12-17T14:52:29.198Z,105.87
2018-12-17T14:54:57.378Z,107.23
2018-12-17T14:57:25.609Z,116.50
2018-12-17T14:59:53.827Z,117.17
2018-12-17T15:02:22.016Z,114.90
2018-12-17T15:04:50.186Z,112.90
2018-12-17T15:07:18.371Z,118.50
2018-12-17T15:09:46.772Z,109.07
2018-12-17T15:12:14.945Z,114.40
2018-12-17T15:14:43.170Z,112.87
2018-12-17T15:17:11.400Z,115.83
2018-12-17T15:19:39.612Z,102.70
2018-12-17T15:22:07.828Z,107.77
2018-12-17T15:24:40.378Z,117.60
2018-12-17T15:27:06.239Z,112.57
2018-12-17T15:29:34.470Z,115.33
2018-12-17T15:32:02.659Z,124.30
2018-12-17T15:34:30.802Z,111.60
2018-12-17T15:36:58.965Z,106.97
2018-12-17T15:39:27.296Z,111.67
2018-12-17T15:41:55.598Z,109.33
2018-12-17T15:44:23.806Z,105.43
2018-12-17T15:46:52.117Z,110.87
2018-12-17T15:49:20.429Z,103.63
2018-12-17T15:51:48.595Z,93.93
2018-12-17T15:54:16.989Z,94.77
2018-12-17T15:56:45.387Z,98.47
2018-12-17T15:59:13.783Z,93.03
2018-12-17T16:01:42.595Z,83.00
2018-12-17T16:04:10.939Z,84.43
2018-12-17T16:06:39.153Z,85.97
2018-12-17T16:09:07.422Z,79.00
2018-12-17T16:11:35.584Z,78.87
2018-12-17T16:14:03.779Z,81.30
2018-12-17T16:16:32.036Z,73.50
2018-12-17T16:19:00.330Z,75.47
2018-12-17T16:21:28.515Z,79.03
2018-12-17T16:23:57.152Z,77.23
2018-12-17T16:26:25.358Z,68.57
2018-12-17T16:28:53.503Z,70.47
2018-12-17T16:31:21.659Z,76.53
2018-12-17T16:33:50.341Z,65.80
2018-12-17T16:36:18.607Z,68.93
2018-12-17T16:38:46.768Z,62.77
2018-12-17T16:41:14.999Z,67.77
2018-12-17T16:43:43.165Z,73.63
2018-12-17T16:46:11.362Z,56.80
2018-12-17T16:48:39.501Z,65.23
2018-12-17T16:51:07.799Z,56.17
2018-12-17T16:53:35.946Z,62.23
2018-12-17T16:56:04.111Z,60.73
2018-12-17T16:58:32.374Z,55.03
2018-12-17T17:01:00.553Z,48.83
2018-12-17T17:03:28.813Z,50.70
2018-12-17T17:05:56.961Z,47.07
2018-12-17T17:08:25.169Z,48.60
2018-12-17T17:10:53.332Z,42.97
2018-12-17T17:13:21.479Z,41.57
2018-12-17T17:15:49.648Z,40.87
2018-12-17T17:18:17.792Z,35.77
2018-12-17T17:20:45.943Z,34.43
2018-12-17T17:23:14.118Z,36.53
2018-12-17T17:25:42.371Z,35.23
2018-12-17T17:28:10.555Z,33.03
2018-12-17T17:30:38.726Z,30.40
2018-12-17T17:33:06.874Z,25.93
2018-12-17T17:35:35.032Z,33.20
2018-12-17T17:38:03.210Z,27.77
2018-12-17T17:40:31.367Z,27.90
2018-12-17T17:42:59.651Z,32.67
2018-12-17T17:45:28.259Z,25.97
2018-12-17T17:47:56.415Z,27.33
2018-12-17T17:50:25.176Z,24.30
2018-12-17T17:52:53.345Z,23.47
2018-12-17T17:55:21.510Z,21.97
2018-12-17T17:57:49.741Z,25.40
2018-12-17T18:00:17.909Z,26.87
2018-12-17T18:02:46.085Z,20.20
2018-12-17T18:05:14.249Z,22.60
2018-12-17T18:07:42.532Z,16.20
2018-12-17T18:10:10.709Z,16.60
2018-12-17T18:12:38.875Z,19.40
2018-12-17T18:15:07.369Z,25.30
2018-12-17T18:17:35.536Z,22.00
2018-12-17T18:20:04.207Z,31.07
2018-12-17T18:22:32.425Z,19.83
2018-12-17T18:25:00.607Z,24.80
2018-12-17T18:27:28.754Z,18.60
2018-12-17T18:29:56.933Z,15.67
2018-12-17T18:32:26.105Z,23.40
2018-12-17T18:34:54.575Z,19.20
2018-12-17T18:37:22.743Z,19.60
2018-12-17T18:39:50.885Z,15.00
2018-12-17T18:42:19.103Z,16.87
2018-12-17T18:44:47.306Z,18.33
2018-12-17T18:47:15.540Z,15.30
2018-12-17T18:49:43.688Z,15.07
2018-12-17T18:52:11.862Z,20.47
2018-12-17T18:54:40.054Z,18.50
2018-12-17T18:57:08.202Z,21.73
2018-12-17T18:59:36.417Z,21.40
2018-12-17T19:02:04.589Z,16.97
2018-12-17T19:04:33.028Z,17.23
2018-12-17T19:07:01.174Z,19.10
2018-12-17T19:09:29.375Z,18.17
2018-12-17T19:11:57.622Z,19.87
2018-12-17T19:14:25.901Z,15.27
2018-12-17T19:16:54.174Z,17.00
2018-12-17T19:19:22.522Z,10.73
2018-12-17T19:21:50.787Z,17.27
2018-12-17T19:24:19.021Z,12.87
2018-12-17T19:26:47.273Z,15.80
2018-12-17T19:29:15.480Z,13.50
2018-12-17T19:31:43.658Z,13.97
2018-12-17T19:34:11.934Z,14.87
2018-12-17T19:36:40.178Z,19.17
2018-12-17T19:39:08.835Z,18.00
2018-12-17T19:41:37.124Z,14.70
2018-12-17T19:44:05.309Z,14.97
2018-12-17T19:46:33.526Z,11.13
2018-12-17T19:49:01.773Z,17.03
2018-12-17T19:51:29.988Z,13.03
2018-12-17T19:53:58.136Z,13.63
2018-12-17T19:56:26.393Z,11.77
2018-12-17T19:58:54.609Z,18.60
2018-12-17T20:01:22.830Z,11.90
2018-12-17T20:03:50.988Z,17.70
2018-12-17T20:06:20.063Z,17.73
2018-12-17T20:08:48.288Z,13.63
2018-12-17T20:11:16.470Z,13.97
2018-12-17T20:13:44.700Z,17.37
2018-12-17T20:16:13.029Z,13.23
2018-12-17T20:18:41.229Z,21.07
2018-12-17T20:21:09.465Z,12.60
2018-12-17T20:23:38.205Z,14.60
2018-12-17T20:26:06.492Z,13.63
2018-12-17T20:28:34.694Z,17.53
2018-12-17T20:31:02.857Z,11.60
2018-12-17T20:33:31.007Z,16.40
2018-12-17T20:35:59.162Z,13.23
2018-12-17T20:38:27.892Z,16.60
2018-12-17T20:40:56.070Z,11.80
2018-12-17T20:43:24.206Z,14.77
2018-12-17T20:45:52.382Z,12.57
2018-12-17T20:48:20.601Z,14.67
2018-12-17T20:50:48.794Z,15.50
2018-12-17T20:53:16.987Z,18.60
2018-12-17T20:55:45.190Z,19.70
2018-12-17T20:58:13.351Z,15.00
2018-12-17T21:00:41.541Z,14.50
2018-12-17T21:03:09.698Z,18.50
2018-12-17T21:05:37.843Z,17.50
2018-12-17T21:08:05.998Z,16.63
2018-12-17T21:10:34.145Z,19.13
2018-12-17T21:13:02.298Z,23.33
2018-12-17T21:15:30.461Z,25.07
2018-12-17T21:17:58.597Z,18.83
2018-12-17T21:20:27.018Z,17.60
2018-12-17T21:22:55.193Z,21.13
2018-12-17T21:25:23.385Z,22.30
2018-12-17T21:27:51.624Z,27.60
2018-12-17T21:30:19.866Z,16.53
2018-12-17T21:32:48.009Z,32.67
2018-12-17T21:35:16.185Z,25.33
2018-12-17T21:37:44.449Z,21.70
2018-12-17T21:40:12.646Z,17.43
2018-12-17T21:42:40.853Z,28.33
2018-12-17T21:45:09.477Z,22.23
2018-12-17T21:47:38.194Z,23.17
2018-12-17T21:50:06.750Z,22.60
2018-12-17T21:52:34.921Z,25.00
2018-12-17T21:55:04.178Z,22.93
2018-12-17T21:57:32.334Z,25.00
2018-12-17T22:00:00.493Z,24.73
2018-12-17T22:02:28.689Z,28.00
2018-12-17T22:04:56.866Z,28.43
2018-12-17T22:07:25.019Z,31.57
2018-12-17T22:09:54.191Z,25.97
2018-12-17T22:12:22.392Z,28.10
2018-12-17T22:14:50.705Z,32.60
2018-12-17T22:17:18.872Z,31.03
2018-12-17T22:19:47.220Z,28.50
2018-12-17T22:22:15.593Z,32.90
2018-12-17T22:24:43.834Z,44.70
2018-12-17T22:27:12.278Z,39.47
2018-12-17T22:29:40.559Z,37.30
2018-12-17T22:32:09.651Z,32.73
2018-12-17T22:34:38.007Z,32.87
2018-12-17T22:37:06.243Z,46.03
2018-12-17T22:39:34.390Z,44.87
2018-12-17T22:42:02.643Z,40.93
2018-12-17T22:44:30.831Z,44.97
2018-12-17T22:46:59.029Z,45.27
2018-12-17T22:49:27.317Z,49.53
2018-12-17T22:51:55.503Z,50.80
2018-12-17T22:54:23.787Z,46.43
2018-12-17T22:56:51.943Z,44.10
2018-12-17T22:59:20.163Z,53.27
2018-12-17T23:01:48.386Z,41.20
2018-12-17T23:04:16.546Z,54.93
2018-12-17T23:06:44.958Z,53.20
2018-12-17T23:09:12.967Z,49.27
2018-12-17T23:12:11.533Z,47.10
2018-12-17T23:14:51.708Z,50.63
2018-12-17T23:17:31.876Z,44.83
2018-12-17T23:20:00.867Z,49.20
2018-12-17T23:22:29.015Z,52.13
2018-12-17T23:24:57.174Z,50.63
2018-12-17T23:27:25.329Z,48.23
2018-12-17T23:29:53.477Z,50.63
2018-12-17T23:32:22.410Z,51.77
2018-12-17T23:34:50.539Z,47.47
2018-12-17T23:37:19.270Z,53.27
2018-12-17T23:39:48.212Z,51.77
2018-12-17T23:42:16.345Z,61.33
2018-12-17T23:44:44.501Z,65.83
2018-12-17T23:47:13.566Z,57.17
2018-12-17T23:49:41.769Z,53.33
2018-12-17T23:52:10.212Z,50.23
2018-12-17T23:54:38.365Z,50.83
2018-12-17T23:57:06.565Z,61.63
2018-12-17T23:59:34.807Z,66.70
